createdAt,value
2023-03-07T00:01:54.651Z,100275.59
2023-03-07T00:04:56.700Z,100258.81
2023-03-07T00:07:59.458Z,100263.78
2023-03-07T00:11:03.369Z,100262.38
2023-03-07T00:14:08.830Z,100263.88
2023-03-07T00:17:10.925Z,100255.69
2023-03-07T00:20:15.979Z,100234.59
2023-03-07T00:23:17.936Z,100230.41
2023-03-07T00:26:22.946Z,100235.28
2023-03-07T00:29:25.047Z,100217.91
2023-03-07T00:32:27.581Z,100217.06
2023-03-07T00:35:29.661Z,100216.22
2023-03-07T00:38:32.924Z,100212.50
2023-03-07T00:41:35.075Z,100214.91
2023-03-07T00:44:37.240Z,100212.16
2023-03-07T00:47:39.322Z,100206.75
2023-03-07T00:50:41.671Z,100189.00
2023-03-07T00:53:44.657Z,100182.84
2023-03-07T00:56:46.869Z,100197.16
2023-03-07T00:59:49.305Z,100183.69
2023-03-07T01:02:52.051Z,100174.69
2023-03-07T01:05:55.265Z,100176.81
2023-03-07T01:09:00.831Z,100168.38
2023-03-07T01:12:07.404Z,100169.19
2023-03-07T01:15:10.019Z,100145.88
2023-03-07T01:18:13.343Z,100129.16
2023-03-07T01:21:21.794Z,100147.25
2023-03-07T01:24:24.544Z,100129.78
2023-03-07T01:27:27.306Z,100131.00
2023-03-07T01:30:29.346Z,100142.97
2023-03-07T01:33:31.601Z,100126.81
2023-03-07T01:36:35.027Z,100123.19
2023-03-07T01:39:40.617Z,100108.41
2023-03-07T01:42:45.279Z,100090.66
2023-03-07T01:45:56.353Z,100109.09
2023-03-07T01:49:01.367Z,100110.63
2023-03-07T01:52:25.579Z,100100.81
2023-03-07T01:55:34.117Z,100087.69
2023-03-07T01:58:46.957Z,100094.19
2023-03-07T02:01:50.314Z,100097.91
2023-03-07T02:05:13.794Z,100098.75
2023-03-07T02:08:17.280Z,100103.78
2023-03-07T02:11:21.376Z,100100.16
2023-03-07T02:14:23.457Z,100101.06
2023-03-07T02:17:28.041Z,100105.88
2023-03-07T02:20:36.237Z,100095.78
2023-03-07T02:23:46.956Z,100100.97
2023-03-07T02:26:51.910Z,100101.94
2023-03-07T02:29:56.427Z,100101.72
2023-03-07T02:32:58.539Z,100104.69
2023-03-07T02:36:08.882Z,100093.09
2023-03-07T02:39:14.761Z,100103.59
2023-03-07T02:42:40.627Z,100109.44
2023-03-07T02:45:47.063Z,100096.97
2023-03-07T02:48:49.424Z,100073.84
2023-03-07T02:51:57.744Z,100088.25
2023-03-07T02:55:00.129Z,100078.03
2023-03-07T02:58:07.353Z,100072.53
2023-03-07T03:01:10.624Z,100071.78
2023-03-07T03:04:12.761Z,100070.31
2023-03-07T03:07:16.010Z,100071.34
2023-03-07T03:10:18.278Z,100062.22
2023-03-07T03:13:20.675Z,100052.19
2023-03-07T03:16:22.966Z,100045.06
2023-03-07T03:19:25.148Z,100037.19
2023-03-07T03:22:27.291Z,100044.47
2023-03-07T03:25:29.923Z,100057.56
2023-03-07T03:28:32.055Z,100046.66
2023-03-07T03:31:35.217Z,100045.66
2023-03-07T03:34:39.551Z,100038.56
2023-03-07T03:37:42.035Z,100061.22
2023-03-07T03:40:44.106Z,100049.25
2023-03-07T03:43:46.983Z,100043.56
2023-03-07T03:46:49.351Z,100046.09
2023-03-07T03:49:53.698Z,100043.00
2023-03-07T03:52:57.142Z,100035.31
2023-03-07T03:56:14.608Z,100050.91
2023-03-07T03:59:17.652Z,100056.03
2023-03-07T04:02:20.031Z,100045.06
2023-03-07T04:05:22.716Z,100061.47
2023-03-07T04:08:24.838Z,100060.56
2023-03-07T04:11:27.117Z,100056.56
2023-03-07T04:14:29.202Z,100049.50
2023-03-07T04:17:31.712Z,100049.97
2023-03-07T04:20:35.017Z,100040.78
2023-03-07T04:23:37.925Z,100050.59
2023-03-07T04:26:40.176Z,100051.78
2023-03-07T04:29:42.306Z,100039.94
2023-03-07T04:32:56.433Z,100044.41
2023-03-07T04:35:58.708Z,100048.72
2023-03-07T04:39:00.811Z,100041.06
2023-03-07T04:42:02.900Z,100034.78
2023-03-07T04:45:11.897Z,100052.31
2023-03-07T04:48:14.335Z,100055.06
2023-03-07T04:51:17.377Z,100058.22
2023-03-07T04:54:19.623Z,100063.25
2023-03-07T04:57:23.756Z,100059.81
2023-03-07T05:00:26.197Z,100058.53
2023-03-07T05:03:28.846Z,100051.28
2023-03-07T05:06:33.576Z,100043.56
2023-03-07T05:09:35.981Z,100041.34
2023-03-07T05:12:38.025Z,100056.53
2023-03-07T05:15:41.294Z,100063.00
2023-03-07T05:18:43.591Z,100068.69
2023-03-07T05:21:47.730Z,100068.25
2023-03-07T05:24:50.205Z,100070.69
2023-03-07T05:27:52.295Z,100071.41
2023-03-07T05:30:57.442Z,100079.06
2023-03-07T05:34:03.035Z,100083.69
2023-03-07T05:37:05.475Z,100075.97
2023-03-07T05:40:11.105Z,100092.78
2023-03-07T05:43:16.701Z,100107.09
2023-03-07T05:46:20.820Z,100098.66
2023-03-07T05:49:25.054Z,100089.84
2023-03-07T05:52:28.365Z,100082.28
2023-03-07T05:55:30.683Z,100089.13
2023-03-07T05:58:33.767Z,100106.28
2023-03-07T06:01:36.005Z,100086.25
2023-03-07T06:04:38.122Z,100092.28
2023-03-07T06:07:40.363Z,100079.31
2023-03-07T06:10:43.278Z,100089.59
2023-03-07T06:13:47.195Z,100081.94
2023-03-07T06:16:49.298Z,100091.66
2023-03-07T06:19:51.544Z,100082.22
2023-03-07T06:22:54.377Z,100086.78
2023-03-07T06:25:56.911Z,100085.16
2023-03-07T06:28:59.805Z,100079.59
2023-03-07T06:32:02.190Z,100078.88
2023-03-07T06:35:04.476Z,100081.09
2023-03-07T06:38:07.607Z,100072.25
2023-03-07T06:41:10.111Z,100078.16
2023-03-07T06:44:12.474Z,100065.19
2023-03-07T06:47:14.512Z,100072.41
2023-03-07T06:50:23.756Z,100079.59
2023-03-07T06:53:32.374Z,100070.84
2023-03-07T06:56:35.964Z,100061.97
2023-03-07T06:59:38.400Z,100063.69
2023-03-07T07:02:40.732Z,100062.06
2023-03-07T07:05:42.941Z,100057.03
2023-03-07T07:08:45.176Z,100055.31
2023-03-07T07:11:47.872Z,100048.00
2023-03-07T07:14:50.167Z,100049.88
2023-03-07T07:17:53.210Z,100056.53
2023-03-07T07:20:57.532Z,100053.81
2023-03-07T07:24:01.337Z,100061.50
2023-03-07T07:27:03.917Z,100071.97
2023-03-07T07:30:07.833Z,100071.13
2023-03-07T07:33:11.325Z,100063.81
2023-03-07T07:36:13.634Z,100071.91
2023-03-07T07:39:17.409Z,100069.84
2023-03-07T07:42:20.801Z,100064.00
2023-03-07T07:45:38.048Z,100056.69
2023-03-07T07:48:42.569Z,100052.28
2023-03-07T07:51:45.787Z,100051.03
2023-03-07T07:54:47.930Z,100050.81
2023-03-07T07:57:51.293Z,100047.47
2023-03-07T08:00:54.142Z,100047.47
2023-03-07T08:03:56.331Z,100058.56
2023-03-07T08:06:58.499Z,100062.53
2023-03-07T08:10:00.593Z,100055.00
2023-03-07T08:13:03.279Z,100053.75
2023-03-07T08:16:22.710Z,100051.63
2023-03-07T08:19:24.814Z,100049.31
2023-03-07T08:22:27.345Z,100048.91
2023-03-07T08:25:30.779Z,100054.34
2023-03-07T08:28:33.363Z,100057.28
2023-03-07T08:31:35.487Z,100042.72
2023-03-07T08:34:37.614Z,100052.88
2023-03-07T08:37:40.685Z,100062.88
2023-03-07T08:40:42.692Z,100045.63
2023-03-07T08:43:44.843Z,100064.19
2023-03-07T08:46:46.762Z,100034.16
2023-03-07T08:49:48.667Z,100051.06
2023-03-07T08:52:51.350Z,100066.50
2023-03-07T08:55:53.399Z,100066.69
2023-03-07T08:58:55.410Z,100062.31
2023-03-07T09:01:57.907Z,100069.38
2023-03-07T09:05:00.084Z,100052.72
2023-03-07T09:08:02.312Z,100053.94
2023-03-07T09:11:05.654Z,100058.78
2023-03-07T09:14:07.785Z,100041.03
2023-03-07T09:17:10.516Z,100047.28
2023-03-07T09:20:14.292Z,100046.03
2023-03-07T09:23:16.262Z,100015.56
2023-03-07T09:26:18.671Z,100020.41
2023-03-07T09:29:20.703Z,100039.94
2023-03-07T09:32:22.782Z,100027.84
2023-03-07T09:35:25.386Z,100050.53
2023-03-07T09:38:27.374Z,100044.72
2023-03-07T09:41:32.333Z,100057.44
2023-03-07T09:44:51.503Z,100049.56
2023-03-07T09:48:31.370Z,100049.41
2023-03-07T09:51:40.219Z,100052.06
2023-03-07T09:55:01.240Z,100045.38
2023-03-07T09:58:16.138Z,100047.41
2023-03-07T10:01:23.198Z,100049.44
2023-03-07T10:04:34.865Z,100046.66
2023-03-07T10:07:37.189Z,100028.78
2023-03-07T10:10:47.593Z,100045.44
2023-03-07T10:14:24.925Z,100039.34
2023-03-07T10:17:40.232Z,100040.78
2023-03-07T10:20:42.736Z,100040.91
2023-03-07T10:24:02.946Z,100033.97
2023-03-07T10:27:10.453Z,100036.09
2023-03-07T10:30:18.173Z,100039.81
2023-03-07T10:33:21.728Z,100035.53
2023-03-07T10:36:46.750Z,100043.09
2023-03-07T10:39:54.346Z,100039.63
2023-03-07T10:42:58.494Z,100043.38
2023-03-07T10:46:24.692Z,100038.00
2023-03-07T10:49:37.688Z,100044.75
2023-03-07T10:53:01.387Z,100038.31
2023-03-07T10:56:16.594Z,100041.31
2023-03-07T10:59:25.432Z,100045.94
2023-03-07T11:02:30.674Z,100037.56
2023-03-07T11:05:36.224Z,100034.72
2023-03-07T11:08:38.168Z,100037.06
2023-03-07T11:11:40.364Z,100031.63
2023-03-07T11:15:00.474Z,100031.16
2023-03-07T11:18:02.800Z,100032.84
2023-03-07T11:21:05.342Z,100033.25
2023-03-07T11:24:30.810Z,100036.19
2023-03-07T11:27:38.986Z,100034.72
2023-03-07T11:30:52.227Z,100023.00
2023-03-07T11:34:17.228Z,100030.78
2023-03-07T11:37:52.068Z,100018.78
2023-03-07T11:40:56.821Z,100012.19
2023-03-07T11:44:36.181Z,100013.41
2023-03-07T11:47:45.855Z,100009.44
2023-03-07T11:50:54.257Z,100016.03
2023-03-07T11:54:07.841Z,100013.09
2023-03-07T11:57:18.729Z,100005.41
2023-03-07T12:00:26.554Z,100010.22
2023-03-07T12:03:54.075Z,100013.91
2023-03-07T12:07:20.557Z,100006.59
2023-03-07T12:10:31.380Z,100008.66
2023-03-07T12:13:45.420Z,100008.41
2023-03-07T12:17:19.282Z,100011.44
2023-03-07T12:20:31.997Z,100012.41
2023-03-07T12:23:41.968Z,100015.78
2023-03-07T12:26:56.430Z,100013.09
2023-03-07T12:30:05.354Z,100002.69
2023-03-07T12:33:21.673Z,100019.34
2023-03-07T12:36:32.060Z,100023.00
2023-03-07T12:39:42.738Z,100019.31
2023-03-07T12:43:09.710Z,100022.91
2023-03-07T12:46:31.497Z,100024.59
2023-03-07T12:49:49.663Z,100023.34
2023-03-07T12:52:57.328Z,100019.81
2023-03-07T12:56:18.501Z,100017.53
2023-03-07T12:59:21.948Z,100015.63
2023-03-07T13:02:30.285Z,100017.63
2023-03-07T13:05:37.901Z,100014.50
2023-03-07T13:08:40.814Z,100010.16
2023-03-07T13:12:20.093Z,100013.91
2023-03-07T13:15:26.037Z,100008.50
2023-03-07T13:18:31.789Z,100008.50
2023-03-07T13:21:34.070Z,100001.03
2023-03-07T13:24:39.985Z,99996.41
2023-03-07T13:27:41.964Z,100003.25
2023-03-07T13:31:16.148Z,100005.81
2023-03-07T13:34:48.151Z,100011.19
2023-03-07T13:38:00.347Z,100002.59
2023-03-07T13:41:05.928Z,100002.81
2023-03-07T13:44:30.693Z,100002.63
2023-03-07T13:47:43.228Z,100012.19
2023-03-07T13:50:45.244Z,100008.47
2023-03-07T13:53:51.053Z,100010.41
2023-03-07T13:56:55.451Z,100009.16
2023-03-07T13:59:57.586Z,100008.38
2023-03-07T14:02:59.848Z,100008.97
2023-03-07T14:06:09.901Z,100008.13
2023-03-07T14:09:18.418Z,100010.25
2023-03-07T14:12:44.341Z,100003.63
2023-03-07T14:16:15.878Z,100008.59
2023-03-07T14:19:38.983Z,100001.59
2023-03-07T14:23:02.718Z,100013.94
2023-03-07T14:26:35.074Z,100008.38
2023-03-07T14:29:37.263Z,100004.78
2023-03-07T14:32:41.044Z,100010.69
2023-03-07T14:35:44.732Z,100009.72
2023-03-07T14:38:48.787Z,99998.28
2023-03-07T14:42:18.216Z,100008.09
2023-03-07T14:45:22.512Z,100001.84
2023-03-07T14:49:12.806Z,100007.94
2023-03-07T14:52:29.899Z,100001.66
2023-03-07T14:55:54.022Z,100001.22
2023-03-07T14:59:00.275Z,100000.41
2023-03-07T15:02:02.270Z,100006.47
2023-03-07T15:05:04.801Z,100000.66
2023-03-07T15:08:22.368Z,100000.25
2023-03-07T15:11:51.974Z,99988.19
2023-03-07T15:15:02.607Z,99998.59
2023-03-07T15:18:14.227Z,99994.84
2023-03-07T15:21:20.644Z,99992.78
2023-03-07T15:24:33.806Z,100004.63
2023-03-07T15:27:35.894Z,100022.19
2023-03-07T15:31:25.491Z,100003.00
2023-03-07T15:34:30.684Z,100001.34
2023-03-07T15:37:33.489Z,100013.25
2023-03-07T15:40:40.089Z,100014.25
2023-03-07T15:43:42.415Z,100022.41
2023-03-07T15:47:14.629Z,100014.06
2023-03-07T15:50:24.071Z,100010.97
2023-03-07T15:53:36.997Z,100015.34
2023-03-07T15:56:41.203Z,100012.88
2023-03-07T15:59:58.472Z,100018.69
2023-03-07T16:03:29.396Z,100026.19
2023-03-07T16:06:44.643Z,100021.41
2023-03-07T16:09:46.646Z,100009.19
2023-03-07T16:12:49.658Z,100008.44
2023-03-07T16:16:12.559Z,100001.22
2023-03-07T16:19:14.695Z,99989.09
2023-03-07T16:22:19.092Z,100009.50
2023-03-07T16:25:24.302Z,100016.88
2023-03-07T16:28:28.322Z,100015.69
2023-03-07T16:31:30.361Z,100018.03
2023-03-07T16:34:33.814Z,100024.91
2023-03-07T16:37:38.862Z,100031.16
2023-03-07T16:40:48.470Z,100023.25
2023-03-07T16:43:55.016Z,100025.19
2023-03-07T16:47:13.978Z,100023.34
2023-03-07T16:50:18.668Z,100027.56
2023-03-07T16:53:20.716Z,100031.53
2023-03-07T16:56:28.744Z,100034.44
2023-03-07T16:59:39.951Z,100051.75
2023-03-07T17:02:42.074Z,100045.53
2023-03-07T17:05:45.106Z,100052.41
2023-03-07T17:08:47.177Z,100042.19
2023-03-07T17:11:51.717Z,100051.34
2023-03-07T17:14:57.506Z,100043.31
2023-03-07T17:18:01.285Z,100043.63
2023-03-07T17:21:03.784Z,100036.72
2023-03-07T17:24:06.182Z,100030.84
2023-03-07T17:27:08.971Z,100041.91
2023-03-07T17:30:17.881Z,100036.88
2023-03-07T17:33:19.826Z,100029.41
2023-03-07T17:36:22.670Z,100032.34
2023-03-07T17:39:25.131Z,100024.31
2023-03-07T17:42:29.527Z,100028.31
2023-03-07T17:45:31.605Z,100033.19
2023-03-07T17:48:35.756Z,100034.91
2023-03-07T17:51:38.064Z,100023.94
2023-03-07T17:54:41.203Z,100030.25
2023-03-07T17:57:48.467Z,100025.38
2023-03-07T18:00:50.493Z,100032.84
2023-03-07T18:03:52.509Z,100010.81
2023-03-07T18:06:54.536Z,100020.56
2023-03-07T18:10:07.449Z,100005.84
2023-03-07T18:13:15.013Z,100029.41
2023-03-07T18:16:19.571Z,100013.00
2023-03-07T18:19:27.466Z,100027.09
2023-03-07T18:22:29.618Z,100033.69
2023-03-07T18:25:32.590Z,100023.41
2023-03-07T18:28:36.599Z,100017.75
2023-03-07T18:31:41.908Z,100027.75
2023-03-07T18:34:44.981Z,100024.41
2023-03-07T18:37:47.573Z,100027.66
2023-03-07T18:40:51.801Z,100038.41
2023-03-07T18:44:05.685Z,100030.28
2023-03-07T18:47:08.634Z,100025.25
2023-03-07T18:50:12.509Z,100038.59
2023-03-07T18:53:17.209Z,100035.53
2023-03-07T18:56:19.568Z,100027.25
2023-03-07T18:59:21.704Z,100036.13
2023-03-07T19:02:23.776Z,100031.56
2023-03-07T19:05:25.878Z,100041.66
2023-03-07T19:08:28.564Z,100047.78
2023-03-07T19:11:31.240Z,100041.88
2023-03-07T19:14:33.712Z,100029.94
2023-03-07T19:17:39.988Z,100044.22
2023-03-07T19:20:42.254Z,100043.22
2023-03-07T19:23:44.432Z,100045.47
2023-03-07T19:26:46.530Z,100047.53
2023-03-07T19:29:48.590Z,100067.09
2023-03-07T19:32:50.674Z,100069.50
2023-03-07T19:36:09.471Z,100060.06
2023-03-07T19:39:20.754Z,100039.47
2023-03-07T19:42:23.738Z,100036.00
2023-03-07T19:45:27.118Z,100050.16
2023-03-07T19:48:29.619Z,100050.41
2023-03-07T19:51:31.608Z,100062.97
2023-03-07T19:54:33.658Z,100068.00
2023-03-07T19:57:36.534Z,100069.25
2023-03-07T20:00:43.496Z,100065.75
2023-03-07T20:03:46.090Z,100060.13
2023-03-07T20:06:48.218Z,100069.94
2023-03-07T20:09:53.181Z,100052.22
2023-03-07T20:12:55.266Z,100070.78
2023-03-07T20:15:57.380Z,100071.41
2023-03-07T20:19:01.981Z,100076.44
2023-03-07T20:22:05.079Z,100080.81
2023-03-07T20:25:07.536Z,100070.59
2023-03-07T20:28:09.890Z,100066.66
2023-03-07T20:31:13.029Z,100076.00
2023-03-07T20:34:15.108Z,100082.06
2023-03-07T20:37:17.166Z,100081.47
2023-03-07T20:40:19.292Z,100083.28
2023-03-07T20:43:21.291Z,100094.09
2023-03-07T20:46:23.742Z,100080.97
2023-03-07T20:49:26.027Z,100087.44
2023-03-07T20:52:28.347Z,100093.50
2023-03-07T20:55:31.100Z,100086.84
2023-03-07T20:58:33.697Z,100082.88
2023-03-07T21:01:36.342Z,100075.59
2023-03-07T21:04:38.343Z,100082.03
2023-03-07T21:07:40.343Z,100068.47
2023-03-07T21:10:42.447Z,100074.34
2023-03-07T21:13:46.622Z,100051.00
2023-03-07T21:16:49.527Z,100073.91
2023-03-07T21:19:51.507Z,100063.09
2023-03-07T21:22:57.591Z,100071.81
2023-03-07T21:26:12.337Z,100056.63
2023-03-07T21:29:14.650Z,100053.28
2023-03-07T21:32:17.059Z,100055.78
2023-03-07T21:35:19.317Z,100047.03
2023-03-07T21:38:23.333Z,100038.47
2023-03-07T21:41:25.432Z,100041.19
2023-03-07T21:44:27.429Z,100038.50
2023-03-07T21:47:29.583Z,100041.59
2023-03-07T21:50:32.492Z,100026.41
2023-03-07T21:53:35.697Z,100025.56
2023-03-07T21:56:37.801Z,100026.81
2023-03-07T21:59:40.447Z,100015.34
2023-03-07T22:02:43.021Z,100015.53
2023-03-07T22:05:45.292Z,100029.91
2023-03-07T22:08:48.691Z,100028.88
2023-03-07T22:11:50.713Z,100018.47
2023-03-07T22:14:52.904Z,100035.94
2023-03-07T22:17:55.889Z,100023.63
2023-03-07T22:20:57.953Z,100030.28
2023-03-07T22:24:01.294Z,100034.06
2023-03-07T22:27:03.521Z,100026.50
2023-03-07T22:30:07.466Z,100019.56
2023-03-07T22:33:09.483Z,100034.47
2023-03-07T22:36:13.760Z,100034.56
2023-03-07T22:39:15.684Z,100011.19
2023-03-07T22:42:17.879Z,100022.31
2023-03-07T22:45:19.893Z,100012.25
2023-03-07T22:48:22.225Z,100008.69
2023-03-07T22:51:25.559Z,100003.91
2023-03-07T22:54:28.051Z,100013.72
2023-03-07T22:57:31.311Z,100017.13
2023-03-07T23:00:33.230Z,100019.22
2023-03-07T23:03:35.317Z,100021.59
2023-03-07T23:06:38.577Z,100028.97
2023-03-07T23:09:40.735Z,100027.56
2023-03-07T23:12:43.104Z,100026.22
2023-03-07T23:15:45.296Z,100031.97
2023-03-07T23:18:51.800Z,100037.94
2023-03-07T23:21:53.822Z,100036.84
2023-03-07T23:24:55.911Z,100032.59
2023-03-07T23:27:57.973Z,100024.19
2023-03-07T23:31:00.323Z,100027.59
2023-03-07T23:34:05.602Z,100034.78
2023-03-07T23:37:07.559Z,100039.59
2023-03-07T23:40:12.231Z,100043.78
2023-03-07T23:43:14.772Z,100057.38
2023-03-07T23:46:16.893Z,100060.97
2023-03-07T23:49:18.953Z,100059.53
2023-03-07T23:52:21.178Z,100054.34
2023-03-07T23:55:23.282Z,100036.44
2023-03-07T23:58:25.374Z,100039.78
